createdAt,value
2022-08-20T00:01:24.465Z,3.00
2022-08-20T00:04:11.560Z,2.88
2022-08-20T00:06:59.738Z,2.92
2022-08-20T00:09:46.551Z,2.90
2022-08-20T00:12:34.896Z,2.70
2022-08-20T00:15:25.015Z,3.00
2022-08-20T00:18:12.408Z,2.83
2022-08-20T00:21:01.120Z,3.05
2022-08-20T00:23:50.207Z,3.20
2022-08-20T00:26:51.671Z,2.63
2022-08-20T00:29:39.578Z,2.63
2022-08-20T00:32:26.546Z,2.80
2022-08-20T00:35:15.578Z,2.70
2022-08-20T00:38:03.257Z,2.83
2022-08-20T00:40:54.544Z,2.78
2022-08-20T00:43:45.116Z,2.88
2022-08-20T00:46:32.965Z,2.95
2022-08-20T00:49:29.034Z,2.90
2022-08-20T00:52:18.383Z,2.85
2022-08-20T00:55:05.682Z,2.83
2022-08-20T00:58:00.802Z,2.60
2022-08-20T01:00:52.266Z,2.92
2022-08-20T01:03:42.380Z,2.85
2022-08-20T01:06:29.482Z,2.88
2022-08-20T01:09:16.396Z,3.03
2022-08-20T01:12:07.137Z,2.95
2022-08-20T01:14:55.442Z,2.80
2022-08-20T01:17:51.042Z,2.80
2022-08-20T01:20:40.445Z,2.70
2022-08-20T01:23:50.826Z,2.85
2022-08-20T01:26:40.630Z,2.90
2022-08-20T01:29:33.146Z,2.65
2022-08-20T01:32:20.867Z,2.70
2022-08-20T01:35:08.747Z,2.70
2022-08-20T01:37:55.763Z,2.67
2022-08-20T01:40:51.720Z,2.72
2022-08-20T01:43:41.756Z,2.63
2022-08-20T01:46:43.742Z,2.55
2022-08-20T01:49:35.419Z,2.78
2022-08-20T01:52:34.612Z,2.90
2022-08-20T01:55:21.437Z,2.80
2022-08-20T01:58:10.609Z,2.85
2022-08-20T02:01:01.238Z,2.85
2022-08-20T02:03:51.302Z,2.78
2022-08-20T02:06:56.531Z,2.85
2022-08-20T02:09:44.507Z,2.92
2022-08-20T02:12:31.320Z,2.90
2022-08-20T02:15:18.098Z,2.90
2022-08-20T02:18:24.495Z,2.90
2022-08-20T02:21:14.102Z,2.97
2022-08-20T02:24:01.276Z,2.80
2022-08-20T02:26:48.315Z,2.83
2022-08-20T02:29:35.139Z,2.90
2022-08-20T02:32:24.693Z,2.97
2022-08-20T02:35:20.099Z,2.65
2022-08-20T02:38:07.165Z,2.97
2022-08-20T02:40:54.027Z,3.08
2022-08-20T02:43:41.268Z,3.00
2022-08-20T02:46:28.473Z,2.80
2022-08-20T02:49:17.694Z,3.13
2022-08-20T02:54:52.183Z,2.60
2022-08-20T02:57:39.493Z,2.70
2022-08-20T03:00:32.216Z,2.63
2022-08-20T03:03:25.781Z,2.95
2022-08-20T03:06:13.085Z,2.75
2022-08-20T03:09:00.741Z,2.80
2022-08-20T03:11:47.535Z,2.65
2022-08-20T03:14:37.535Z,2.80
2022-08-20T03:17:24.343Z,2.72
2022-08-20T03:20:12.025Z,2.90
2022-08-20T03:22:59.069Z,3.03
2022-08-20T03:25:46.799Z,2.95
2022-08-20T03:28:36.250Z,3.10
2022-08-20T03:31:23.076Z,2.90
2022-08-20T03:34:09.873Z,2.67
2022-08-20T03:36:56.707Z,2.80
2022-08-20T03:39:47.498Z,2.67
2022-08-20T03:42:38.917Z,3.10
2022-08-20T03:45:27.494Z,2.92
2022-08-20T03:48:17.681Z,2.90
2022-08-20T03:54:43.442Z,2.85
2022-08-20T03:57:53.493Z,2.72
2022-08-20T04:00:47.702Z,2.70
2022-08-20T04:03:34.597Z,2.88
2022-08-20T04:06:21.369Z,2.83
2022-08-20T04:09:09.685Z,2.80
2022-08-20T04:12:00.186Z,2.85
2022-08-20T04:14:46.996Z,2.70
2022-08-20T04:17:33.814Z,2.67
2022-08-20T04:20:25.545Z,2.70
2022-08-20T04:23:14.148Z,2.95
2022-08-20T04:26:01.397Z,2.78
2022-08-20T04:28:48.194Z,2.90
2022-08-20T04:31:35.116Z,2.67
2022-08-20T04:34:22.293Z,2.83
2022-08-20T04:37:16.916Z,2.88
2022-08-20T04:40:24.332Z,2.90
2022-08-20T04:43:12.349Z,2.70
2022-08-20T04:46:01.801Z,2.90
2022-08-20T04:51:25.206Z,2.80
2022-08-20T04:54:14.511Z,2.67
2022-08-20T04:57:01.919Z,2.63
2022-08-20T04:59:48.747Z,3.00
2022-08-20T05:02:42.780Z,2.90
2022-08-20T05:05:30.796Z,2.83
2022-08-20T05:08:20.321Z,2.95
2022-08-20T05:11:34.221Z,2.90
2022-08-20T05:14:16.195Z,2.75
2022-08-20T05:17:05.181Z,3.08
2022-08-20T05:19:52.992Z,2.78
2022-08-20T05:22:39.948Z,2.45
2022-08-20T05:25:30.653Z,2.90
2022-08-20T05:28:28.695Z,2.60
2022-08-20T05:31:15.509Z,2.67
2022-08-20T05:34:09.322Z,3.10
2022-08-20T05:36:56.293Z,2.90
2022-08-20T05:39:44.210Z,3.13
2022-08-20T05:42:31.026Z,2.90
2022-08-20T05:45:18.159Z,2.70
2022-08-20T05:48:11.403Z,3.10
2022-08-20T05:50:58.589Z,3.10
2022-08-20T05:53:45.393Z,3.05
2022-08-20T05:56:32.526Z,3.00
2022-08-20T05:59:24.036Z,2.90
2022-08-20T06:02:31.030Z,3.08
2022-08-20T06:05:19.694Z,3.47
2022-08-20T06:08:08.254Z,3.10
2022-08-20T06:10:55.727Z,2.97
2022-08-20T06:13:42.581Z,3.05
2022-08-20T06:16:30.896Z,2.70
2022-08-20T06:19:25.002Z,3.22
2022-08-20T06:22:19.697Z,3.17
2022-08-20T06:25:11.992Z,3.17
2022-08-20T06:27:58.810Z,3.13
2022-08-20T06:30:45.755Z,3.40
2022-08-20T06:33:32.613Z,3.38
2022-08-20T06:36:19.658Z,3.40
2022-08-20T06:39:06.482Z,3.25
2022-08-20T06:41:53.344Z,3.10
2022-08-20T06:44:42.228Z,3.28
2022-08-20T06:47:30.284Z,3.20
2022-08-20T06:50:22.262Z,3.27
2022-08-20T06:53:10.538Z,3.13
2022-08-20T06:58:46.037Z,3.25
2022-08-20T07:01:32.955Z,2.95
2022-08-20T07:04:19.910Z,3.42
2022-08-20T07:07:07.278Z,3.03
2022-08-20T07:10:20.818Z,3.13
2022-08-20T07:13:07.648Z,3.13
2022-08-20T07:15:55.232Z,3.33
2022-08-20T07:18:42.398Z,3.55
2022-08-20T07:21:30.335Z,3.33
2022-08-20T07:24:17.151Z,3.30
2022-08-20T07:27:04.373Z,3.42
2022-08-20T07:30:15.141Z,4.10
2022-08-20T07:33:02.103Z,3.50
2022-08-20T07:35:52.709Z,3.53
2022-08-20T07:38:47.600Z,3.63
2022-08-20T07:41:34.473Z,3.53
2022-08-20T07:44:25.810Z,3.53
2022-08-20T07:47:21.328Z,3.35
2022-08-20T07:50:15.823Z,3.90
2022-08-20T07:53:02.703Z,3.50
2022-08-20T07:55:58.726Z,3.78
2022-08-20T07:58:50.503Z,3.53
2022-08-20T08:01:37.543Z,3.55
2022-08-20T08:04:25.667Z,3.50
2022-08-20T08:07:12.992Z,3.35
2022-08-20T08:10:02.082Z,3.70
2022-08-20T08:12:52.059Z,3.47
2022-08-20T08:15:42.850Z,3.28
2022-08-20T08:18:34.874Z,3.80
2022-08-20T08:21:23.697Z,3.53
2022-08-20T08:27:01.301Z,3.63
2022-08-20T08:29:49.731Z,3.60
2022-08-20T08:32:58.172Z,3.90
2022-08-20T08:35:46.272Z,3.55
2022-08-20T08:38:34.539Z,3.70
2022-08-20T08:41:32.035Z,4.13
2022-08-20T08:44:30.789Z,3.50
2022-08-20T08:47:36.229Z,3.78
2022-08-20T08:50:50.066Z,3.67
2022-08-20T08:53:40.023Z,3.30
2022-08-20T08:56:29.361Z,3.88
2022-08-20T08:59:16.211Z,4.00
2022-08-20T09:02:03.109Z,4.45
2022-08-20T09:04:51.587Z,4.10
2022-08-20T09:07:38.462Z,4.30
2022-08-20T09:10:25.335Z,4.28
2022-08-20T09:13:12.495Z,4.50
2022-08-20T09:15:59.434Z,4.63
2022-08-20T09:18:46.296Z,4.78
2022-08-20T09:21:33.072Z,4.85
2022-08-20T09:24:19.958Z,4.50
2022-08-20T09:27:06.905Z,4.43
2022-08-20T09:29:53.681Z,4.93
2022-08-20T09:32:41.730Z,5.03
2022-08-20T09:35:29.634Z,5.40
2022-08-20T09:38:16.518Z,5.93
2022-08-20T09:41:03.317Z,6.10
2022-08-20T09:43:50.136Z,5.78
2022-08-20T09:46:37.033Z,6.57
2022-08-20T09:49:23.794Z,6.28
2022-08-20T09:52:12.108Z,6.78
2022-08-20T09:55:01.744Z,7.32
2022-08-20T09:57:49.986Z,6.80
2022-08-20T10:00:36.940Z,7.47
2022-08-20T10:03:23.718Z,7.53
2022-08-20T10:06:11.388Z,8.30
2022-08-20T10:08:58.434Z,7.20
2022-08-20T10:11:47.654Z,7.85
2022-08-20T10:14:34.438Z,8.15
2022-08-20T10:17:21.778Z,8.98
2022-08-20T10:20:10.605Z,8.52
2022-08-20T10:22:57.454Z,8.02
2022-08-20T10:25:44.276Z,7.95
2022-08-20T10:28:31.104Z,8.55
2022-08-20T10:31:17.883Z,9.65
2022-08-20T10:34:05.853Z,9.25
2022-08-20T10:36:52.737Z,10.00
2022-08-20T10:39:39.590Z,9.60
2022-08-20T10:42:26.477Z,9.77
2022-08-20T10:45:16.130Z,10.50
2022-08-20T10:48:03.167Z,9.98
2022-08-20T10:50:50.520Z,9.38
2022-08-20T10:53:37.295Z,10.02
2022-08-20T10:56:24.066Z,10.30
2022-08-20T10:59:10.863Z,9.38
2022-08-20T11:01:57.784Z,9.98
2022-08-20T11:04:45.147Z,9.45
2022-08-20T11:07:50.710Z,9.70
2022-08-20T11:10:42.175Z,9.05
2022-08-20T11:13:28.990Z,10.05
2022-08-20T11:16:15.764Z,10.43
2022-08-20T11:19:02.560Z,10.57
2022-08-20T11:21:49.337Z,10.13
2022-08-20T11:24:36.206Z,9.35
2022-08-20T11:27:31.457Z,9.82
2022-08-20T11:30:22.051Z,10.10
2022-08-20T11:33:08.910Z,9.75
2022-08-20T11:35:55.863Z,9.98
2022-08-20T11:38:42.956Z,10.80
2022-08-20T11:41:29.752Z,10.60
2022-08-20T11:44:20.975Z,10.55
2022-08-20T11:47:24.521Z,11.02
2022-08-20T11:50:19.624Z,11.10
2022-08-20T11:53:08.018Z,11.15
2022-08-20T11:55:54.983Z,11.27
2022-08-20T11:58:42.997Z,10.95
2022-08-20T12:01:29.792Z,10.70
2022-08-20T12:04:16.577Z,11.55
2022-08-20T12:07:11.313Z,12.07
2022-08-20T12:09:58.389Z,10.68
2022-08-20T12:12:45.202Z,11.00
2022-08-20T12:15:34.146Z,11.35
2022-08-20T12:18:21.739Z,11.32
2022-08-20T12:21:14.531Z,10.77
2022-08-20T12:24:01.330Z,10.38
2022-08-20T12:26:48.115Z,10.95
2022-08-20T12:29:34.921Z,11.27
2022-08-20T12:32:26.312Z,11.18
2022-08-20T12:35:15.358Z,10.63
2022-08-20T12:38:05.203Z,10.60
2022-08-20T12:40:51.987Z,10.23
2022-08-20T12:43:38.799Z,10.60
2022-08-20T12:46:25.594Z,11.25
2022-08-20T12:49:12.403Z,11.00
2022-08-20T12:51:59.205Z,11.27
2022-08-20T12:54:46.080Z,10.73
2022-08-20T12:57:39.535Z,10.85
2022-08-20T13:00:44.406Z,11.30
2022-08-20T13:03:40.791Z,10.70
2022-08-20T13:06:38.628Z,10.55
2022-08-20T13:09:56.069Z,10.90
2022-08-20T13:12:46.278Z,10.68
2022-08-20T13:15:33.320Z,10.88
2022-08-20T13:18:20.812Z,11.15
2022-08-20T13:21:07.604Z,11.20
2022-08-20T13:23:54.606Z,10.68
2022-08-20T13:26:41.405Z,11.27
2022-08-20T13:29:28.246Z,11.30
2022-08-20T13:32:15.371Z,11.15
2022-08-20T13:35:02.188Z,11.48
2022-08-20T13:37:49.813Z,10.93
2022-08-20T13:40:36.628Z,11.80
2022-08-20T13:43:23.449Z,10.88
2022-08-20T13:46:10.244Z,11.10
2022-08-20T13:48:57.048Z,10.45
2022-08-20T13:51:44.036Z,10.63
2022-08-20T13:54:30.826Z,10.13
2022-08-20T13:57:19.398Z,11.13
2022-08-20T14:00:11.214Z,10.93
2022-08-20T14:02:58.413Z,10.52
2022-08-20T14:05:45.433Z,10.90
2022-08-20T14:08:32.526Z,10.85
2022-08-20T14:11:19.405Z,10.43
2022-08-20T14:14:06.198Z,11.52
2022-08-20T14:18:04.472Z,13.23
2022-08-20T14:20:51.394Z,11.95
2022-08-20T14:23:38.183Z,10.98
2022-08-20T14:26:25.053Z,11.48
2022-08-20T14:29:11.892Z,12.05
2022-08-20T14:32:00.878Z,12.23
2022-08-20T14:34:49.247Z,11.32
2022-08-20T14:37:38.255Z,11.85
2022-08-20T14:40:26.512Z,11.45
2022-08-20T14:43:13.316Z,11.60
2022-08-20T14:46:00.096Z,11.98
2022-08-20T14:48:46.889Z,11.20
2022-08-20T14:51:40.199Z,12.05
2022-08-20T14:54:26.984Z,11.60
2022-08-20T14:57:15.068Z,11.63
2022-08-20T15:00:02.052Z,11.02
2022-08-20T15:02:49.218Z,12.25
2022-08-20T15:05:39.488Z,13.15
2022-08-20T15:08:28.830Z,13.95
2022-08-20T15:11:15.839Z,12.95
2022-08-20T15:14:02.646Z,12.45
2022-08-20T15:16:49.475Z,12.57
2022-08-20T15:19:36.265Z,13.05
2022-08-20T15:22:23.778Z,11.73
2022-08-20T15:25:14.896Z,12.93
2022-08-20T15:28:02.013Z,12.75
2022-08-20T15:30:48.957Z,12.48
2022-08-20T15:33:35.938Z,12.23
2022-08-20T15:36:22.809Z,11.93
2022-08-20T15:39:09.581Z,11.95
2022-08-20T15:41:56.368Z,12.25
2022-08-20T15:44:43.724Z,11.68
2022-08-20T15:47:35.238Z,12.30
2022-08-20T15:50:24.761Z,12.10
2022-08-20T15:53:16.421Z,11.73
2022-08-20T15:56:44.964Z,12.63
2022-08-20T15:59:59.776Z,11.45
2022-08-20T16:03:06.911Z,10.32
2022-08-20T16:06:04.603Z,10.75
2022-08-20T16:09:38.691Z,11.13
2022-08-20T16:12:36.050Z,10.10
2022-08-20T16:15:26.227Z,11.18
2022-08-20T16:18:19.432Z,11.18
2022-08-20T16:21:09.747Z,11.57
2022-08-20T16:23:57.489Z,12.10
2022-08-20T16:27:10.403Z,10.63
2022-08-20T16:30:34.560Z,10.50
2022-08-20T16:33:36.157Z,10.55
2022-08-20T19:38:18.812Z,3.20
2022-08-20T19:41:48.330Z,3.33
2022-08-20T20:13:31.265Z,2.97
2022-08-20T20:50:47.384Z,3.10
2022-08-20T21:01:53.302Z,3.05
2022-08-20T21:05:42.571Z,2.90
2022-08-20T21:09:20.617Z,3.05
2022-08-20T21:13:02.509Z,3.20
2022-08-20T21:16:00.255Z,3.05
2022-08-20T21:19:19.421Z,2.83
2022-08-20T21:22:22.056Z,2.97
2022-08-20T21:25:22.869Z,2.97
2022-08-20T21:28:19.985Z,2.75
2022-08-20T21:31:31.114Z,3.00
2022-08-20T21:34:55.079Z,2.92
2022-08-20T21:37:58.227Z,2.85
2022-08-20T21:41:01.489Z,2.80
2022-08-20T21:44:07.435Z,2.58
2022-08-20T21:47:21.211Z,2.78
2022-08-20T21:53:42.348Z,3.10
2022-08-20T21:56:37.184Z,2.88
2022-08-20T21:59:51.705Z,2.88
2022-08-20T22:02:41.471Z,3.10
2022-08-20T22:05:42.500Z,3.05
2022-08-20T22:08:39.977Z,2.85
2022-08-20T22:11:34.000Z,3.20
2022-08-20T22:14:30.965Z,3.13
2022-08-20T22:17:32.986Z,3.00
2022-08-20T22:20:24.528Z,2.85
2022-08-20T22:23:27.492Z,3.17
2022-08-20T22:26:38.009Z,3.25
2022-08-20T22:29:45.128Z,3.40
2022-08-20T22:32:52.262Z,3.45
2022-08-20T22:36:00.479Z,3.45
2022-08-20T22:38:57.477Z,3.28
2022-08-20T22:42:05.337Z,3.60
2022-08-20T22:44:53.657Z,3.78
2022-08-20T22:47:46.962Z,3.72
2022-08-20T22:50:47.745Z,3.60
2022-08-20T22:53:52.802Z,3.47
2022-08-20T22:56:51.470Z,3.55
2022-08-20T22:59:52.940Z,3.60
2022-08-20T23:02:48.944Z,3.70
2022-08-20T23:05:46.472Z,3.50
2022-08-20T23:08:51.900Z,4.07
2022-08-20T23:12:06.193Z,3.47
2022-08-20T23:14:57.902Z,3.70
2022-08-20T23:18:12.706Z,4.00
2022-08-20T23:21:23.581Z,3.70
2022-08-20T23:24:28.704Z,3.42
2022-08-20T23:27:31.543Z,3.75
2022-08-20T23:30:37.962Z,3.90
2022-08-20T23:33:41.768Z,3.78
2022-08-20T23:36:39.833Z,3.63
2022-08-20T23:39:58.763Z,3.80
2022-08-20T23:42:51.493Z,3.65
2022-08-20T23:45:48.568Z,3.50
2022-08-20T23:48:51.658Z,4.25
2022-08-20T23:51:44.684Z,3.80
2022-08-20T23:54:37.274Z,3.50
2022-08-20T23:57:35.861Z,4.18
